sensor_id;sensor_type;location;lat;lon;timestamp;P1;durP1;ratioP1;P2;durP2;ratioP2
45940;SDS011;31858;46.008;8.978;2024-01-30T00:03:00;10.05;;;6.65;;
45940;SDS011;31858;46.008;8.978;2024-01-30T00:13:03;12.05;;;7.43;;
45940;SDS011;31858;46.008;8.978;2024-01-30T00:23:05;8.88;;;6.53;;
45940;SDS011;31858;46.008;8.978;2024-01-30T00:33:08;12.52;;;7.25;;
45940;SDS011;31858;46.008;8.978;2024-01-30T00:43:10;9.13;;;6.55;;
45940;SDS011;31858;46.008;8.978;2024-01-30T00:53:13;7.93;;;5.40;;
45940;SDS011;31858;46.008;8.978;2024-01-30T01:03:15;9.80;;;6.55;;
45940;SDS011;31858;46.008;8.978;2024-01-30T01:13:18;9.88;;;6.20;;
45940;SDS011;31858;46.008;8.978;2024-01-30T01:23:20;9.05;;;5.80;;
45940;SDS011;31858;46.008;8.978;2024-01-30T01:33:23;7.70;;;5.18;;
45940;SDS011;31858;46.008;8.978;2024-01-30T01:43:24;7.93;;;5.53;;
45940;SDS011;31858;46.008;8.978;2024-01-30T01:53:27;11.48;;;6.28;;
45940;SDS011;31858;46.008;8.978;2024-01-30T02:03:29;10.15;;;6.65;;
45940;SDS011;31858;46.008;8.978;2024-01-30T02:13:32;11.60;;;6.20;;
45940;SDS011;31858;46.008;8.978;2024-01-30T02:23:35;10.02;;;6.78;;
45940;SDS011;31858;46.008;8.978;2024-01-30T02:33:38;10.75;;;6.05;;
45940;SDS011;31858;46.008;8.978;2024-01-30T02:43:42;10.48;;;6.15;;
45940;SDS011;31858;46.008;8.978;2024-01-30T02:53:43;11.55;;;6.35;;
45940;SDS011;31858;46.008;8.978;2024-01-30T03:03:46;9.23;;;5.88;;
45940;SDS011;31858;46.008;8.978;2024-01-30T03:13:48;10.48;;;6.50;;
45940;SDS011;31858;46.008;8.978;2024-01-30T03:23:51;9.93;;;6.43;;
45940;SDS011;31858;46.008;8.978;2024-01-30T03:33:52;10.52;;;6.28;;
45940;SDS011;31858;46.008;8.978;2024-01-30T03:43:55;8.93;;;6.18;;
45940;SDS011;31858;46.008;8.978;2024-01-30T03:53:57;10.32;;;6.03;;
45940;SDS011;31858;46.008;8.978;2024-01-30T04:04:00;10.60;;;6.90;;
45940;SDS011;31858;46.008;8.978;2024-01-30T04:14:01;13.90;;;7.43;;
45940;SDS011;31858;46.008;8.978;2024-01-30T04:24:05;13.10;;;7.53;;
45940;SDS011;31858;46.008;8.978;2024-01-30T04:34:06;11.50;;;7.90;;
45940;SDS011;31858;46.008;8.978;2024-01-30T04:44:09;12.05;;;7.55;;
45940;SDS011;31858;46.008;8.978;2024-01-30T04:54:11;12.18;;;7.25;;
45940;SDS011;31858;46.008;8.978;2024-01-30T05:04:14;13.45;;;6.47;;
45940;SDS011;31858;46.008;8.978;2024-01-30T05:14:15;11.98;;;7.38;;
45940;SDS011;31858;46.008;8.978;2024-01-30T05:24:19;10.50;;;7.45;;
45940;SDS011;31858;46.008;8.978;2024-01-30T05:34:20;10.73;;;7.57;;
45940;SDS011;31858;46.008;8.978;2024-01-30T05:44:23;15.75;;;6.68;;
45940;SDS011;31858;46.008;8.978;2024-01-30T05:54:25;10.70;;;6.32;;
45940;SDS011;31858;46.008;8.978;2024-01-30T06:04:28;11.27;;;6.32;;
45940;SDS011;31858;46.008;8.978;2024-01-30T06:14:29;10.48;;;6.22;;
45940;SDS011;31858;46.008;8.978;2024-01-30T06:24:34;9.35;;;5.97;;
45940;SDS011;31858;46.008;8.978;2024-01-30T06:34:35;10.60;;;5.80;;
45940;SDS011;31858;46.008;8.978;2024-01-30T06:44:40;7.85;;;5.55;;
45940;SDS011;31858;46.008;8.978;2024-01-30T06:54:41;7.57;;;4.70;;
45940;SDS011;31858;46.008;8.978;2024-01-30T07:04:44;6.18;;;4.35;;
45940;SDS011;31858;46.008;8.978;2024-01-30T07:14:46;4.90;;;3.45;;
45940;SDS011;31858;46.008;8.978;2024-01-30T07:24:50;7.95;;;3.90;;
45940;SDS011;31858;46.008;8.978;2024-01-30T07:34:52;7.13;;;4.93;;
45940;SDS011;31858;46.008;8.978;2024-01-30T07:44:55;5.40;;;3.20;;
45940;SDS011;31858;46.008;8.978;2024-01-30T07:54:56;4.88;;;3.40;;
45940;SDS011;31858;46.008;8.978;2024-01-30T08:04:59;4.43;;;3.55;;
45940;SDS011;31858;46.008;8.978;2024-01-30T08:15:01;7.28;;;3.95;;
45940;SDS011;31858;46.008;8.978;2024-01-30T08:25:05;7.68;;;4.30;;
45940;SDS011;31858;46.008;8.978;2024-01-30T08:35:07;10.30;;;3.65;;
45940;SDS011;31858;46.008;8.978;2024-01-30T08:45:11;13.30;;;4.68;;
45940;SDS011;31858;46.008;8.978;2024-01-30T08:55:12;6.88;;;4.35;;
45940;SDS011;31858;46.008;8.978;2024-01-30T09:05:16;5.07;;;3.70;;
45940;SDS011;31858;46.008;8.978;2024-01-30T09:15:17;6.35;;;4.07;;
45940;SDS011;31858;46.008;8.978;2024-01-30T09:25:20;6.03;;;3.95;;
45940;SDS011;31858;46.008;8.978;2024-01-30T09:35:22;9.05;;;4.78;;
45940;SDS011;31858;46.008;8.978;2024-01-30T09:45:25;7.78;;;5.28;;
45940;SDS011;31858;46.008;8.978;2024-01-30T09:55:27;9.10;;;5.50;;
45940;SDS011;31858;46.008;8.978;2024-01-30T10:05:31;10.85;;;6.20;;
45940;SDS011;31858;46.008;8.978;2024-01-30T10:15:34;14.68;;;5.88;;
45940;SDS011;31858;46.008;8.978;2024-01-30T10:25:37;3.35;;;2.90;;
45940;SDS011;31858;46.008;8.978;2024-01-30T10:35:39;5.25;;;4.00;;
45940;SDS011;31858;46.008;8.978;2024-01-30T10:45:42;7.32;;;5.72;;
45940;SDS011;31858;46.008;8.978;2024-01-30T10:55:50;10.40;;;6.78;;
45940;SDS011;31858;46.008;8.978;2024-01-30T11:05:58;10.23;;;7.18;;
45940;SDS011;31858;46.008;8.978;2024-01-30T11:16:01;9.30;;;6.90;;
45940;SDS011;31858;46.008;8.978;2024-01-30T11:26:05;13.73;;;9.02;;
45940;SDS011;31858;46.008;8.978;2024-01-30T11:36:08;11.65;;;8.18;;
45940;SDS011;31858;46.008;8.978;2024-01-30T11:46:11;15.95;;;9.75;;
45940;SDS011;31858;46.008;8.978;2024-01-30T11:56:13;14.73;;;9.57;;
45940;SDS011;31858;46.008;8.978;2024-01-30T12:06:16;14.20;;;9.68;;
45940;SDS011;31858;46.008;8.978;2024-01-30T12:16:18;17.25;;;11.52;;
45940;SDS011;31858;46.008;8.978;2024-01-30T12:26:21;14.18;;;9.52;;
45940;SDS011;31858;46.008;8.978;2024-01-30T12:36:22;13.15;;;9.70;;
45940;SDS011;31858;46.008;8.978;2024-01-30T12:46:26;15.52;;;10.65;;
45940;SDS011;31858;46.008;8.978;2024-01-30T12:56:29;15.55;;;10.88;;
45940;SDS011;31858;46.008;8.978;2024-01-30T13:06:32;21.80;;;12.70;;
45940;SDS011;31858;46.008;8.978;2024-01-30T13:16:34;18.13;;;11.32;;
45940;SDS011;31858;46.008;8.978;2024-01-30T13:26:37;15.15;;;10.15;;
45940;SDS011;31858;46.008;8.978;2024-01-30T13:36:39;16.50;;;10.98;;
45940;SDS011;31858;46.008;8.978;2024-01-30T13:46:43;15.00;;;10.15;;
45940;SDS011;31858;46.008;8.978;2024-01-30T13:56:45;15.85;;;10.10;;
45940;SDS011;31858;46.008;8.978;2024-01-30T14:06:48;13.77;;;10.55;;
45940;SDS011;31858;46.008;8.978;2024-01-30T14:16:49;17.35;;;10.35;;
45940;SDS011;31858;46.008;8.978;2024-01-30T14:26:52;18.77;;;10.77;;
45940;SDS011;31858;46.008;8.978;2024-01-30T14:36:55;18.02;;;10.85;;
45940;SDS011;31858;46.008;8.978;2024-01-30T14:46:58;17.67;;;10.10;;
45940;SDS011;31858;46.008;8.978;2024-01-30T14:57:00;15.88;;;10.13;;
45940;SDS011;31858;46.008;8.978;2024-01-30T15:07:03;23.13;;;13.85;;
45940;SDS011;31858;46.008;8.978;2024-01-30T15:17:05;24.15;;;15.50;;
45940;SDS011;31858;46.008;8.978;2024-01-30T15:27:07;27.55;;;16.70;;
45940;SDS011;31858;46.008;8.978;2024-01-30T15:37:09;23.75;;;15.93;;
45940;SDS011;31858;46.008;8.978;2024-01-30T15:47:12;23.60;;;15.73;;
45940;SDS011;31858;46.008;8.978;2024-01-30T15:57:14;21.98;;;13.90;;
45940;SDS011;31858;46.008;8.978;2024-01-30T16:07:16;21.38;;;13.07;;
45940;SDS011;31858;46.008;8.978;2024-01-30T16:17:18;23.52;;;16.10;;
45940;SDS011;31858;46.008;8.978;2024-01-30T16:27:21;25.35;;;15.40;;
45940;SDS011;31858;46.008;8.978;2024-01-30T16:37:23;23.00;;;14.10;;
45940;SDS011;31858;46.008;8.978;2024-01-30T16:47:26;28.40;;;16.08;;
45940;SDS011;31858;46.008;8.978;2024-01-30T16:57:28;30.67;;;18.67;;
45940;SDS011;31858;46.008;8.978;2024-01-30T17:07:31;35.20;;;19.73;;
45940;SDS011;31858;46.008;8.978;2024-01-30T17:17:35;25.70;;;14.95;;
45940;SDS011;31858;46.008;8.978;2024-01-30T17:27:38;30.80;;;12.15;;
45940;SDS011;31858;46.008;8.978;2024-01-30T17:37:39;23.40;;;15.13;;
45940;SDS011;31858;46.008;8.978;2024-01-30T17:47:42;27.67;;;14.95;;
45940;SDS011;31858;46.008;8.978;2024-01-30T17:57:44;24.67;;;15.68;;
45940;SDS011;31858;46.008;8.978;2024-01-30T18:07:47;34.00;;;16.38;;
45940;SDS011;31858;46.008;8.978;2024-01-30T18:17:48;23.70;;;13.95;;
45940;SDS011;31858;46.008;8.978;2024-01-30T18:27:51;24.92;;;15.45;;
45940;SDS011;31858;46.008;8.978;2024-01-30T18:37:53;27.27;;;15.68;;
45940;SDS011;31858;46.008;8.978;2024-01-30T18:47:56;23.83;;;13.95;;
45940;SDS011;31858;46.008;8.978;2024-01-30T18:57:57;21.20;;;13.27;;
45940;SDS011;31858;46.008;8.978;2024-01-30T19:08:00;22.45;;;13.82;;
45940;SDS011;31858;46.008;8.978;2024-01-30T19:18:02;25.50;;;14.63;;
45940;SDS011;31858;46.008;8.978;2024-01-30T19:28:05;22.02;;;13.60;;
45940;SDS011;31858;46.008;8.978;2024-01-30T19:38:07;23.58;;;13.38;;
45940;SDS011;31858;46.008;8.978;2024-01-30T19:48:11;25.58;;;13.35;;
45940;SDS011;31858;46.008;8.978;2024-01-30T19:58:13;29.58;;;14.27;;
45940;SDS011;31858;46.008;8.978;2024-01-30T20:08:16;22.05;;;14.13;;
45940;SDS011;31858;46.008;8.978;2024-01-30T20:18:17;21.73;;;13.38;;
45940;SDS011;31858;46.008;8.978;2024-01-30T20:28:20;25.23;;;13.85;;
45940;SDS011;31858;46.008;8.978;2024-01-30T20:38:22;19.77;;;13.07;;
45940;SDS011;31858;46.008;8.978;2024-01-30T20:48:25;21.27;;;13.27;;
45940;SDS011;31858;46.008;8.978;2024-01-30T20:58:27;19.23;;;11.73;;
45940;SDS011;31858;46.008;8.978;2024-01-30T21:08:30;19.65;;;12.48;;
45940;SDS011;31858;46.008;8.978;2024-01-30T21:18:32;19.70;;;12.38;;
45940;SDS011;31858;46.008;8.978;2024-01-30T21:28:36;21.77;;;12.55;;
45940;SDS011;31858;46.008;8.978;2024-01-30T21:38:38;16.90;;;11.13;;
45940;SDS011;31858;46.008;8.978;2024-01-30T21:48:41;18.00;;;11.77;;
45940;SDS011;31858;46.008;8.978;2024-01-30T21:58:42;20.55;;;12.55;;
45940;SDS011;31858;46.008;8.978;2024-01-30T22:08:45;18.88;;;11.43;;
45940;SDS011;31858;46.008;8.978;2024-01-30T22:18:48;16.10;;;10.05;;
45940;SDS011;31858;46.008;8.978;2024-01-30T22:28:51;18.98;;;10.00;;
45940;SDS011;31858;46.008;8.978;2024-01-30T22:38:55;15.80;;;10.50;;
45940;SDS011;31858;46.008;8.978;2024-01-30T22:48:59;20.85;;;10.80;;
45940;SDS011;31858;46.008;8.978;2024-01-30T22:59:00;20.25;;;11.88;;
45940;SDS011;31858;46.008;8.978;2024-01-30T23:09:03;22.30;;;12.18;;
45940;SDS011;31858;46.008;8.978;2024-01-30T23:19:05;21.10;;;13.05;;
45940;SDS011;31858;46.008;8.978;2024-01-30T23:29:08;20.02;;;11.95;;
45940;SDS011;31858;46.008;8.978;2024-01-30T23:39:09;21.02;;;12.18;;
45940;SDS011;31858;46.008;8.978;2024-01-30T23:49:12;21.30;;;11.20;;
45940;SDS011;31858;46.008;8.978;2024-01-30T23:59:15;17.42;;;10.60;;
